createdAt,value
2023-05-07T00:00:06.646Z,0.00
2023-05-07T00:01:06.643Z,0.00
2023-05-07T00:02:06.607Z,0.00
2023-05-07T00:03:06.757Z,0.00
2023-05-07T00:04:06.834Z,0.00
2023-05-07T00:05:06.717Z,0.00
2023-05-07T00:06:06.587Z,0.00
2023-05-07T00:07:06.697Z,0.00
2023-05-07T00:08:06.639Z,0.00
2023-05-07T00:09:06.618Z,0.00
2023-05-07T00:10:06.557Z,0.00
2023-05-07T00:11:06.548Z,0.00
2023-05-07T00:12:06.542Z,0.00
2023-05-07T00:13:06.619Z,0.00
2023-05-07T00:14:06.563Z,0.00
2023-05-07T00:15:06.513Z,0.00
2023-05-07T00:16:06.509Z,0.00
2023-05-07T00:17:06.535Z,0.00
2023-05-07T00:18:06.676Z,0.00
2023-05-07T00:19:06.496Z,0.00
2023-05-07T00:20:06.541Z,0.00
2023-05-07T00:21:06.474Z,0.00
2023-05-07T00:22:07.494Z,0.00
2023-05-07T00:23:06.452Z,0.00
2023-05-07T00:24:06.536Z,0.00
2023-05-07T00:25:06.507Z,0.00
2023-05-07T00:26:06.430Z,0.00
2023-05-07T00:27:06.461Z,0.00
2023-05-07T00:28:06.440Z,0.00
2023-05-07T00:29:06.401Z,0.00
2023-05-07T00:30:06.394Z,0.00
2023-05-07T00:31:06.415Z,0.00
2023-05-07T00:32:06.461Z,0.00
2023-05-07T00:33:06.390Z,0.00
2023-05-07T00:34:06.381Z,0.00
2023-05-07T00:35:06.359Z,0.00
2023-05-07T00:36:06.938Z,0.00
2023-05-07T00:37:06.916Z,0.00
2023-05-07T00:38:07.335Z,0.00
2023-05-07T00:39:06.341Z,0.00
2023-05-07T00:40:06.501Z,0.00
2023-05-07T00:41:06.342Z,0.00
2023-05-07T00:42:06.302Z,0.00
2023-05-07T00:43:06.309Z,0.00
2023-05-07T00:44:06.293Z,0.00
2023-05-07T00:45:06.279Z,0.00
2023-05-07T00:46:06.425Z,0.00
2023-05-07T00:47:06.346Z,0.00
2023-05-07T00:48:06.298Z,0.00
2023-05-07T00:49:06.265Z,0.00
2023-05-07T00:50:06.304Z,0.00
2023-05-07T00:51:06.309Z,0.00
2023-05-07T00:52:06.257Z,0.00
2023-05-07T00:53:06.232Z,0.00
2023-05-07T00:54:06.215Z,0.00
2023-05-07T00:55:06.289Z,0.00
2023-05-07T00:56:06.201Z,0.00
2023-05-07T00:57:06.204Z,0.00
2023-05-07T00:58:06.181Z,0.00
2023-05-07T00:59:06.206Z,0.00
2023-05-07T01:00:06.262Z,0.00
2023-05-07T01:01:06.265Z,0.00
2023-05-07T01:02:06.157Z,0.00
2023-05-07T01:03:06.202Z,0.00
2023-05-07T01:04:06.169Z,0.00
2023-05-07T01:05:06.174Z,0.00
2023-05-07T01:06:06.116Z,0.00
2023-05-07T01:07:06.104Z,0.00
2023-05-07T01:08:06.184Z,0.00
2023-05-07T01:09:06.165Z,0.00
2023-05-07T01:10:06.116Z,0.00
2023-05-07T01:11:06.090Z,0.00
2023-05-07T01:12:07.086Z,0.00
2023-05-07T01:13:06.767Z,0.00
2023-05-07T01:14:06.089Z,0.00
2023-05-07T01:15:06.055Z,0.00
2023-05-07T01:16:06.045Z,0.00
2023-05-07T01:17:06.069Z,0.00
2023-05-07T01:18:06.097Z,0.00
2023-05-07T01:19:06.049Z,0.00
2023-05-07T01:20:06.022Z,0.00
2023-05-07T01:21:06.020Z,0.00
2023-05-07T01:22:05.998Z,0.00
2023-05-07T01:23:06.008Z,0.00
2023-05-07T01:24:06.050Z,0.00
2023-05-07T01:25:05.988Z,0.00
2023-05-07T01:26:05.998Z,0.00
2023-05-07T01:27:05.968Z,0.00
2023-05-07T01:28:06.022Z,0.00
2023-05-07T01:29:05.963Z,0.00
2023-05-07T01:30:05.976Z,0.00
2023-05-07T01:31:05.956Z,0.00
2023-05-07T01:32:05.910Z,0.00
2023-05-07T01:33:05.954Z,0.00
2023-05-07T01:34:05.929Z,0.00
2023-05-07T01:35:05.906Z,0.00
2023-05-07T01:36:05.891Z,0.00
2023-05-07T01:37:05.961Z,0.00
2023-05-07T01:38:05.922Z,0.00
2023-05-07T01:39:05.885Z,0.00
2023-05-07T01:40:05.858Z,0.00
2023-05-07T01:41:05.852Z,0.00
2023-05-07T01:42:05.838Z,0.00
2023-05-07T01:43:05.928Z,0.00
2023-05-07T01:44:06.071Z,0.00
2023-05-07T01:45:05.953Z,0.00
2023-05-07T01:46:05.829Z,0.00
2023-05-07T01:47:05.840Z,0.00
2023-05-07T01:48:05.854Z,0.00
2023-05-07T01:49:05.790Z,0.00
2023-05-07T01:50:05.772Z,0.00
2023-05-07T01:51:05.784Z,0.00
2023-05-07T01:52:05.789Z,0.00
2023-05-07T01:53:05.748Z,0.00
2023-05-07T01:54:05.736Z,0.00
2023-05-07T01:55:05.725Z,0.00
2023-05-07T01:56:05.735Z,0.00
2023-05-07T01:57:05.739Z,0.00
2023-05-07T01:58:05.730Z,0.00
2023-05-07T01:59:05.704Z,0.00
2023-05-07T02:00:05.763Z,0.00
2023-05-07T02:01:05.748Z,0.00
2023-05-07T02:02:05.730Z,0.00
2023-05-07T02:03:05.746Z,0.00
2023-05-07T02:04:05.724Z,0.00
2023-05-07T02:05:05.669Z,0.00
2023-05-07T02:06:05.674Z,0.00
2023-05-07T02:07:05.729Z,0.00
2023-05-07T02:08:05.631Z,0.00
2023-05-07T02:09:05.661Z,0.00
2023-05-07T02:10:05.623Z,0.00
2023-05-07T02:11:05.645Z,0.00
2023-05-07T02:12:05.628Z,0.00
2023-05-07T02:13:05.648Z,0.00
2023-05-07T02:14:05.601Z,0.00
2023-05-07T02:15:05.626Z,0.00
2023-05-07T02:16:05.781Z,0.00
2023-05-07T02:17:05.593Z,0.00
2023-05-07T02:18:05.598Z,0.00
2023-05-07T02:19:05.568Z,0.00
2023-05-07T02:20:05.577Z,0.00
2023-05-07T02:21:05.623Z,0.00
2023-05-07T02:22:05.532Z,0.00
2023-05-07T02:23:05.522Z,0.00
2023-05-07T02:24:05.519Z,0.00
2023-05-07T02:25:05.548Z,0.00
2023-05-07T02:26:05.503Z,0.00
2023-05-07T02:27:05.496Z,0.00
2023-05-07T02:28:05.516Z,0.00
2023-05-07T02:29:05.478Z,0.00
2023-05-07T02:30:05.511Z,0.00
2023-05-07T02:31:05.477Z,0.00
2023-05-07T02:32:05.619Z,0.00
2023-05-07T02:33:05.462Z,0.00
2023-05-07T02:34:05.463Z,0.00
2023-05-07T02:35:05.524Z,0.00
2023-05-07T02:36:05.438Z,0.00
2023-05-07T02:37:05.434Z,0.00
2023-05-07T02:38:05.417Z,0.00
2023-05-07T02:39:05.434Z,0.00
2023-05-07T02:40:05.568Z,0.00
2023-05-07T02:41:06.365Z,0.00
2023-05-07T02:42:05.388Z,0.00
2023-05-07T02:43:05.379Z,0.00
2023-05-07T02:44:05.390Z,0.00
2023-05-07T02:45:05.509Z,0.00
2023-05-07T02:46:05.397Z,0.00
2023-05-07T02:47:05.360Z,0.00
2023-05-07T02:48:05.499Z,0.00
2023-05-07T02:49:05.473Z,0.00
2023-05-07T02:50:05.313Z,0.00
2023-05-07T02:51:05.317Z,0.00
2023-05-07T02:52:05.345Z,0.00
2023-05-07T02:53:05.363Z,0.00
2023-05-07T02:54:05.318Z,0.00
2023-05-07T02:55:05.312Z,0.00
2023-05-07T02:56:05.301Z,0.00
2023-05-07T02:57:06.276Z,0.00
2023-05-07T02:58:06.172Z,0.00
2023-05-07T02:59:05.255Z,0.00
2023-05-07T03:00:05.242Z,0.00
2023-05-07T03:01:06.300Z,0.00
2023-05-07T03:02:05.261Z,0.00
2023-05-07T03:03:05.296Z,0.00
2023-05-07T03:04:05.272Z,0.00
2023-05-07T03:05:05.225Z,0.00
2023-05-07T03:06:05.208Z,0.00
2023-05-07T03:07:05.230Z,0.00
2023-05-07T03:08:05.194Z,0.00
2023-05-07T03:09:05.173Z,0.00
2023-05-07T03:10:05.173Z,0.00
2023-05-07T03:11:05.172Z,0.00
2023-05-07T03:12:05.185Z,0.00
2023-05-07T03:13:05.196Z,0.00
2023-05-07T03:14:05.182Z,0.00
2023-05-07T03:15:05.161Z,0.00
2023-05-07T03:16:05.181Z,0.00
2023-05-07T03:17:05.148Z,0.00
2023-05-07T03:18:05.223Z,0.00
2023-05-07T03:19:05.233Z,0.00
2023-05-07T03:20:05.269Z,0.00
2023-05-07T03:21:05.159Z,0.00
2023-05-07T03:22:05.103Z,0.00
2023-05-07T03:23:05.074Z,0.00
2023-05-07T03:24:05.086Z,0.00
2023-05-07T03:25:05.059Z,0.00
2023-05-07T03:26:05.071Z,0.00
2023-05-07T03:27:05.078Z,0.00
2023-05-07T03:28:05.036Z,0.00
2023-05-07T03:29:05.024Z,4.00
2023-05-07T03:30:05.041Z,0.00
2023-05-07T03:31:05.070Z,0.00
2023-05-07T03:32:05.010Z,4.00
2023-05-07T03:33:05.070Z,0.00
2023-05-07T03:34:04.992Z,0.00
2023-05-07T03:35:05.802Z,4.00
2023-05-07T03:36:05.173Z,4.00
2023-05-07T03:37:04.970Z,0.00
2023-05-07T03:38:04.953Z,4.00
2023-05-07T03:39:04.950Z,4.00
2023-05-07T03:40:05.081Z,4.00
2023-05-07T03:41:04.936Z,8.00
2023-05-07T03:42:04.930Z,4.00
2023-05-07T03:43:04.923Z,4.00
2023-05-07T03:44:04.915Z,4.00
2023-05-07T03:45:04.928Z,4.00
2023-05-07T03:46:04.917Z,4.00
2023-05-07T03:47:05.871Z,4.00
2023-05-07T03:48:04.905Z,8.00
2023-05-07T03:49:04.868Z,8.00
2023-05-07T03:50:04.896Z,12.00
2023-05-07T03:51:04.858Z,8.00
2023-05-07T03:52:04.930Z,12.00
2023-05-07T03:53:04.866Z,12.00
2023-05-07T03:54:04.876Z,12.00
2023-05-07T03:55:04.860Z,12.00
2023-05-07T03:56:04.832Z,16.00
2023-05-07T03:57:04.912Z,12.00
2023-05-07T03:58:04.829Z,16.00
2023-05-07T03:59:04.841Z,20.00
2023-05-07T04:00:04.817Z,16.00
2023-05-07T04:01:04.875Z,20.00
2023-05-07T04:02:05.682Z,16.00
2023-05-07T04:03:04.888Z,16.00
2023-05-07T04:04:04.970Z,20.00
2023-05-07T04:05:04.758Z,20.00
2023-05-07T04:06:04.749Z,20.00
2023-05-07T04:07:05.739Z,24.00
2023-05-07T04:08:04.916Z,24.00
2023-05-07T04:09:04.750Z,24.00
2023-05-07T04:10:04.716Z,28.00
2023-05-07T04:11:04.732Z,28.00
2023-05-07T04:12:04.706Z,28.00
2023-05-07T04:13:05.266Z,28.00
2023-05-07T04:14:04.782Z,32.00
2023-05-07T04:15:04.681Z,32.00
2023-05-07T04:16:04.684Z,28.00
2023-05-07T04:17:04.750Z,32.00
2023-05-07T04:18:04.729Z,32.00
2023-05-07T04:19:04.664Z,32.00
2023-05-07T04:20:04.643Z,32.00
2023-05-07T04:21:04.639Z,36.00
2023-05-07T04:22:05.655Z,36.00
2023-05-07T04:23:04.663Z,36.00
2023-05-07T04:24:04.673Z,40.00
2023-05-07T04:25:04.687Z,40.00
2023-05-07T04:26:04.615Z,44.00
2023-05-07T04:27:04.627Z,44.00
2023-05-07T04:28:04.609Z,44.00
2023-05-07T04:29:04.636Z,44.00
2023-05-07T04:30:04.573Z,48.00
2023-05-07T04:31:04.596Z,52.00
2023-05-07T04:32:04.677Z,56.00
2023-05-07T04:33:04.627Z,52.00
2023-05-07T04:34:04.539Z,56.00
2023-05-07T04:35:04.539Z,60.00
2023-05-07T04:36:04.573Z,64.00
2023-05-07T04:37:04.606Z,68.00
2023-05-07T04:38:04.511Z,68.00
2023-05-07T04:39:04.598Z,72.00
2023-05-07T04:40:04.575Z,72.00
2023-05-07T04:41:04.538Z,76.00
2023-05-07T04:42:04.493Z,80.00
2023-05-07T04:43:04.468Z,84.00
2023-05-07T04:44:04.470Z,88.00
2023-05-07T04:45:04.472Z,92.00
2023-05-07T04:46:04.500Z,92.00
2023-05-07T04:47:04.452Z,92.00
2023-05-07T04:48:04.533Z,92.00
2023-05-07T04:49:04.427Z,96.00
2023-05-07T04:50:04.449Z,96.00
2023-05-07T04:51:04.436Z,96.00
2023-05-07T04:52:04.425Z,100.00
2023-05-07T04:53:04.394Z,100.00
2023-05-07T04:54:04.383Z,108.00
2023-05-07T04:55:04.452Z,112.00
2023-05-07T04:56:04.396Z,116.00
2023-05-07T04:57:04.363Z,120.00
2023-05-07T04:58:04.357Z,120.00
2023-05-07T04:59:04.360Z,116.00
2023-05-07T05:00:04.376Z,116.00
2023-05-07T05:01:04.418Z,120.00
2023-05-07T05:02:04.346Z,124.00
2023-05-07T05:03:04.363Z,124.00
2023-05-07T05:04:04.393Z,128.00
2023-05-07T05:05:04.327Z,136.00
2023-05-07T05:06:04.396Z,140.00
2023-05-07T05:07:04.341Z,144.00
2023-05-07T05:08:04.293Z,148.00
2023-05-07T05:09:04.321Z,148.00
2023-05-07T05:10:04.299Z,148.00
2023-05-07T05:11:04.280Z,156.00
2023-05-07T05:12:04.499Z,168.00
2023-05-07T05:13:04.279Z,184.00
2023-05-07T05:14:04.270Z,200.00
2023-05-07T05:15:04.230Z,232.00
2023-05-07T05:16:04.270Z,244.00
2023-05-07T05:17:04.234Z,252.00
2023-05-07T05:18:04.259Z,260.00
2023-05-07T05:19:04.245Z,276.00
2023-05-07T05:20:04.275Z,288.00
2023-05-07T05:21:04.203Z,308.00
2023-05-07T05:22:04.230Z,336.00
2023-05-07T05:23:04.232Z,352.00
2023-05-07T05:24:04.178Z,352.00
2023-05-07T05:25:04.212Z,352.00
2023-05-07T05:26:04.160Z,336.00
2023-05-07T05:27:04.157Z,328.00
2023-05-07T05:28:04.215Z,292.00
2023-05-07T05:29:04.126Z,280.00
2023-05-07T05:30:04.131Z,284.00
2023-05-07T05:31:04.123Z,300.00
2023-05-07T05:32:04.280Z,300.00
2023-05-07T05:33:04.167Z,300.00
2023-05-07T05:34:04.106Z,312.00
2023-05-07T05:35:04.082Z,320.00
2023-05-07T05:36:04.087Z,320.00
2023-05-07T05:37:04.096Z,324.00
2023-05-07T05:38:04.065Z,344.00
2023-05-07T05:40:14.582Z,340.00
2023-05-07T05:41:14.603Z,352.00
2023-05-07T05:42:14.617Z,364.00
2023-05-07T05:43:14.731Z,360.00
2023-05-07T05:44:14.594Z,392.00
2023-05-07T05:45:14.572Z,448.00
2023-05-07T05:46:14.796Z,436.00
2023-05-07T05:47:14.576Z,432.00
2023-05-07T05:48:14.632Z,432.00
2023-05-07T05:49:14.547Z,408.00
2023-05-07T05:50:14.541Z,400.00
2023-05-07T05:51:14.553Z,392.00
2023-05-07T05:52:15.671Z,376.00
2023-05-07T05:53:15.643Z,380.00
2023-05-07T05:54:15.648Z,392.00
2023-05-07T05:55:15.650Z,400.00
2023-05-07T05:56:15.662Z,376.00
2023-05-07T05:57:15.607Z,368.00
2023-05-07T05:58:15.606Z,376.00
2023-05-07T05:59:15.626Z,404.00
2023-05-07T06:00:15.653Z,412.00
2023-05-07T06:01:15.621Z,424.00
2023-05-07T06:02:15.726Z,464.00
2023-05-07T06:03:15.615Z,496.00
2023-05-07T06:04:15.561Z,504.00
2023-05-07T06:05:15.633Z,504.00
2023-05-07T06:06:15.569Z,516.00
2023-05-07T06:07:15.535Z,524.00
2023-05-07T06:08:15.529Z,560.00
2023-05-07T06:09:15.796Z,584.00
2023-05-07T06:10:16.538Z,576.00
2023-05-07T06:11:15.509Z,576.00
2023-05-07T06:12:15.499Z,572.00
2023-05-07T06:13:15.535Z,536.00
2023-05-07T06:14:15.480Z,540.00
2023-05-07T06:15:15.550Z,536.00
2023-05-07T06:16:15.546Z,544.00
2023-05-07T06:17:15.463Z,544.00
2023-05-07T06:18:16.350Z,528.00
2023-05-07T06:19:15.476Z,528.00
2023-05-07T06:20:15.466Z,544.00
2023-05-07T06:21:15.479Z,560.00
2023-05-07T06:22:15.422Z,576.00
2023-05-07T06:23:17.647Z,600.00
2023-05-07T06:24:16.494Z,616.00
2023-05-07T06:25:15.401Z,616.00
2023-05-07T06:26:15.389Z,596.00
2023-05-07T06:27:15.384Z,592.00
2023-05-07T06:28:15.376Z,592.00
2023-05-07T06:29:15.394Z,580.00
2023-05-07T06:30:15.361Z,576.00
2023-05-07T06:31:15.434Z,588.00
2023-05-07T06:32:15.400Z,584.00
2023-05-07T06:33:15.377Z,576.00
2023-05-07T06:34:15.346Z,584.00
2023-05-07T06:35:15.402Z,604.00
2023-05-07T06:36:15.317Z,600.00
2023-05-07T06:37:15.310Z,596.00
2023-05-07T06:38:15.325Z,580.00
2023-05-07T06:39:16.287Z,584.00
2023-05-07T06:40:15.284Z,588.00
2023-05-07T06:41:15.277Z,592.00
2023-05-07T06:42:15.268Z,612.00
2023-05-07T06:43:15.284Z,644.00
2023-05-07T06:44:15.256Z,668.00
2023-05-07T06:45:15.239Z,692.00
2023-05-07T06:46:15.263Z,704.00
2023-05-07T06:47:16.406Z,712.00
2023-05-07T06:48:16.239Z,708.00
2023-05-07T06:49:15.206Z,712.00
2023-05-07T06:50:15.228Z,748.00
2023-05-07T06:51:15.206Z,768.00
2023-05-07T06:52:15.219Z,788.00
2023-05-07T06:53:15.178Z,768.00
2023-05-07T06:54:15.195Z,752.00
2023-05-07T06:55:15.172Z,748.00
2023-05-07T06:56:15.160Z,752.00
2023-05-07T06:57:15.177Z,768.00
2023-05-07T06:58:15.144Z,768.00
2023-05-07T06:59:15.170Z,764.00
2023-05-07T07:00:15.132Z,780.00
2023-05-07T07:01:15.191Z,796.00
2023-05-07T07:02:16.999Z,836.00
2023-05-07T07:03:15.160Z,868.00
2023-05-07T07:04:15.120Z,884.00
2023-05-07T07:05:15.100Z,876.00
2023-05-07T07:06:15.112Z,864.00
2023-05-07T07:07:15.092Z,848.00
2023-05-07T07:08:15.063Z,852.00
2023-05-07T07:09:15.061Z,864.00
2023-05-07T07:10:15.065Z,880.00
2023-05-07T07:11:15.070Z,896.00
2023-05-07T07:12:15.041Z,872.00
2023-05-07T07:13:15.027Z,872.00
2023-05-07T07:14:15.007Z,880.00
2023-05-07T07:15:15.011Z,888.00
2023-05-07T07:16:15.061Z,900.00
2023-05-07T07:17:14.990Z,904.00
2023-05-07T07:18:14.984Z,908.00
2023-05-07T07:19:15.025Z,932.00
2023-05-07T07:20:15.083Z,976.00
2023-05-07T07:21:14.981Z,996.00
2023-05-07T07:22:14.949Z,1060.00
2023-05-07T07:23:14.970Z,1124.00
2023-05-07T07:24:14.963Z,1160.00
2023-05-07T07:25:14.997Z,1184.00
2023-05-07T07:26:14.945Z,1164.00
2023-05-07T07:27:14.915Z,1132.00
2023-05-07T07:28:14.907Z,1160.00
2023-05-07T07:29:14.925Z,1212.00
2023-05-07T07:30:14.915Z,1244.00
2023-05-07T07:31:14.905Z,1180.00
2023-05-07T07:32:14.881Z,1176.00
2023-05-07T07:33:14.863Z,1196.00
2023-05-07T07:34:14.883Z,1228.00
2023-05-07T07:35:15.085Z,1264.00
2023-05-07T07:36:14.840Z,1260.00
2023-05-07T07:37:14.857Z,1236.00
2023-05-07T07:38:14.837Z,1260.00
2023-05-07T07:39:14.852Z,1296.00
2023-05-07T07:40:14.841Z,1384.00
2023-05-07T07:41:15.812Z,1408.00
2023-05-07T07:42:14.803Z,1424.00
2023-05-07T07:43:14.869Z,1452.00
2023-05-07T07:44:15.927Z,1452.00
2023-05-07T07:45:15.782Z,1448.00
2023-05-07T07:46:14.808Z,1532.00
2023-05-07T07:47:14.793Z,1660.00
2023-05-07T07:48:14.795Z,1860.00
2023-05-07T07:49:14.784Z,1968.00
2023-05-07T07:50:21.976Z,2116.00
2023-05-07T07:51:16.788Z,1868.00
2023-05-07T07:52:14.726Z,1784.00
2023-05-07T07:53:14.730Z,1768.00
2023-05-07T07:54:14.760Z,1748.00
2023-05-07T07:55:14.705Z,1712.00
2023-05-07T07:56:14.778Z,1728.00
2023-05-07T07:57:14.697Z,1832.00
2023-05-07T07:58:14.700Z,1992.00
2023-05-07T07:59:14.704Z,2136.00
2023-05-07T08:00:14.695Z,2148.00
2023-05-07T08:01:14.656Z,2088.00
2023-05-07T08:02:14.721Z,2064.00
2023-05-07T08:03:14.789Z,1968.00
2023-05-07T08:04:14.693Z,1904.00
2023-05-07T08:05:14.643Z,1916.00
2023-05-07T08:06:15.306Z,2000.00
2023-05-07T08:07:15.664Z,1964.00
2023-05-07T08:08:14.632Z,2020.00
2023-05-07T08:09:14.612Z,2132.00
2023-05-07T08:10:14.612Z,2248.00
2023-05-07T08:11:14.584Z,2280.00
2023-05-07T08:12:14.571Z,2212.00
2023-05-07T08:13:14.656Z,2404.00
2023-05-07T08:14:14.570Z,2600.00
2023-05-07T08:15:14.555Z,2716.00
2023-05-07T08:16:14.638Z,2784.00
2023-05-07T08:17:14.640Z,2868.00
2023-05-07T08:18:14.617Z,2988.00
2023-05-07T08:19:14.526Z,3140.00
2023-05-07T08:20:14.651Z,3512.00
2023-05-07T08:21:14.567Z,3248.00
2023-05-07T08:22:14.546Z,3300.00
2023-05-07T08:23:14.634Z,3204.00
2023-05-07T08:24:14.507Z,2972.00
2023-05-07T08:25:14.492Z,3192.00
2023-05-07T08:26:14.531Z,3248.00
2023-05-07T08:27:14.494Z,2924.00
2023-05-07T08:28:14.486Z,2904.00
2023-05-07T08:29:14.469Z,3076.00
2023-05-07T08:30:14.478Z,3104.00
2023-05-07T08:31:14.575Z,2992.00
2023-05-07T08:32:14.453Z,2828.00
2023-05-07T08:33:14.458Z,2848.00
2023-05-07T08:34:14.462Z,2776.00
2023-05-07T08:35:14.414Z,2756.00
2023-05-07T08:36:14.447Z,2776.00
2023-05-07T08:37:14.421Z,2872.00
2023-05-07T08:38:14.400Z,2932.00
2023-05-07T08:39:14.393Z,3084.00
2023-05-07T08:40:14.798Z,3152.00
2023-05-07T08:41:15.442Z,3080.00
2023-05-07T08:42:14.371Z,3136.00
2023-05-07T08:43:15.354Z,3300.00
2023-05-07T08:44:14.350Z,3444.00
2023-05-07T08:45:15.408Z,3596.00
2023-05-07T08:46:15.239Z,3544.00
2023-05-07T08:47:14.314Z,3596.00
2023-05-07T08:48:14.312Z,4164.00
2023-05-07T08:49:14.314Z,4400.00
2023-05-07T08:50:14.333Z,4388.00
2023-05-07T08:51:14.280Z,4448.00
2023-05-07T08:52:14.288Z,4444.00
2023-05-07T08:53:14.262Z,4168.00
2023-05-07T08:54:14.335Z,4216.00
2023-05-07T08:55:15.431Z,4048.00
2023-05-07T08:56:14.279Z,4288.00
2023-05-07T08:57:14.282Z,4296.00
2023-05-07T08:58:14.236Z,4268.00
2023-05-07T08:59:14.289Z,4420.00
2023-05-07T09:00:14.281Z,4428.00
2023-05-07T09:01:14.320Z,4404.00
2023-05-07T09:02:14.288Z,4144.00
2023-05-07T09:03:14.271Z,4056.00
2023-05-07T09:04:14.384Z,3692.00
2023-05-07T09:05:14.288Z,3708.00
2023-05-07T09:06:14.178Z,3696.00
2023-05-07T09:07:14.156Z,3440.00
2023-05-07T09:08:14.171Z,3372.00
2023-05-07T09:09:14.181Z,3460.00
2023-05-07T09:10:14.153Z,3512.00
2023-05-07T09:11:14.174Z,3972.00
2023-05-07T09:12:14.140Z,3948.00
2023-05-07T09:13:14.220Z,3980.00
2023-05-07T09:14:14.130Z,4080.00
2023-05-07T09:15:14.173Z,4072.00
2023-05-07T09:16:14.158Z,4148.00
2023-05-07T09:17:14.091Z,3932.00
2023-05-07T09:18:16.538Z,3572.00
2023-05-07T09:19:14.107Z,3404.00
2023-05-07T09:20:14.054Z,3320.00
2023-05-07T09:21:15.057Z,3488.00
2023-05-07T09:22:14.042Z,3760.00
2023-05-07T09:23:14.056Z,3484.00
2023-05-07T09:24:14.034Z,3232.00
2023-05-07T09:25:14.332Z,3368.00
2023-05-07T09:26:14.052Z,3252.00
2023-05-07T09:27:14.066Z,3248.00
2023-05-07T09:28:14.016Z,3264.00
2023-05-07T09:29:13.987Z,2980.00
2023-05-07T09:30:14.060Z,3196.00
2023-05-07T09:31:14.030Z,3168.00
2023-05-07T09:32:14.730Z,3292.00
2023-05-07T09:33:13.989Z,2952.00
2023-05-07T09:34:13.981Z,3492.00
2023-05-07T09:35:13.935Z,3528.00
2023-05-07T09:36:13.935Z,3572.00
2023-05-07T09:37:13.952Z,3308.00
2023-05-07T09:38:13.932Z,3540.00
2023-05-07T09:39:13.916Z,3676.00
2023-05-07T09:40:13.928Z,3668.00
2023-05-07T09:41:13.899Z,3620.00
2023-05-07T09:42:13.925Z,3556.00
2023-05-07T09:43:13.892Z,3144.00
2023-05-07T09:44:13.871Z,3176.00
2023-05-07T09:45:13.967Z,3384.00
2023-05-07T09:46:14.071Z,3456.00
2023-05-07T09:47:14.433Z,3524.00
2023-05-07T09:48:13.840Z,3544.00
2023-05-07T09:49:13.828Z,3580.00
2023-05-07T09:50:13.830Z,3580.00
2023-05-07T09:51:14.393Z,3568.00
2023-05-07T09:52:14.728Z,3584.00
2023-05-07T09:53:13.922Z,3600.00
2023-05-07T09:54:13.799Z,3532.00
2023-05-07T09:55:13.833Z,3548.00
2023-05-07T09:56:13.809Z,3624.00
2023-05-07T09:57:13.771Z,3664.00
2023-05-07T09:58:13.768Z,3712.00
2023-05-07T09:59:13.891Z,3604.00
2023-05-07T10:00:13.780Z,3544.00
2023-05-07T10:01:13.804Z,3612.00
2023-05-07T10:02:13.772Z,3612.00
2023-05-07T10:03:13.893Z,3596.00
2023-05-07T10:04:13.730Z,3600.00
2023-05-07T10:05:13.860Z,3224.00
2023-05-07T10:06:13.771Z,3576.00
2023-05-07T10:07:13.691Z,3576.00
2023-05-07T10:08:13.680Z,3520.00
2023-05-07T10:09:13.681Z,3568.00
2023-05-07T10:10:13.707Z,3204.00
2023-05-07T10:11:13.692Z,3364.00
2023-05-07T10:12:13.703Z,3376.00
2023-05-07T10:13:13.732Z,3156.00
2023-05-07T10:14:13.645Z,3088.00
2023-05-07T10:15:13.955Z,3376.00
2023-05-07T10:16:13.631Z,3412.00
2023-05-07T10:17:13.628Z,3456.00
2023-05-07T10:18:13.760Z,3500.00
2023-05-07T10:19:13.638Z,3460.00
2023-05-07T10:20:13.623Z,3508.00
2023-05-07T10:21:13.585Z,3524.00
2023-05-07T10:22:13.582Z,3432.00
2023-05-07T10:23:13.586Z,3508.00
2023-05-07T10:24:13.588Z,3320.00
2023-05-07T10:25:13.803Z,3544.00
2023-05-07T10:26:13.550Z,3592.00
2023-05-07T10:27:13.536Z,3564.00
2023-05-07T10:28:13.537Z,3544.00
2023-05-07T10:29:13.553Z,3524.00
2023-05-07T10:30:13.551Z,3540.00
2023-05-07T10:31:13.586Z,3488.00
2023-05-07T10:32:13.507Z,3484.00
2023-05-07T10:33:13.525Z,3488.00
2023-05-07T10:34:13.535Z,3460.00
2023-05-07T10:35:13.652Z,3288.00
2023-05-07T10:36:13.489Z,3416.00
2023-05-07T10:37:13.473Z,3436.00
2023-05-07T10:38:13.471Z,3428.00
2023-05-07T10:39:13.520Z,3412.00
2023-05-07T10:40:13.492Z,3416.00
2023-05-07T10:41:13.440Z,3424.00
2023-05-07T10:42:13.482Z,3444.00
2023-05-07T10:43:13.451Z,3248.00
2023-05-07T10:44:13.519Z,3264.00
2023-05-07T10:45:13.416Z,3196.00
2023-05-07T10:46:13.480Z,3388.00
2023-05-07T10:47:13.522Z,3368.00
2023-05-07T10:48:27.835Z,3188.00
2023-05-07T10:49:15.381Z,3208.00
2023-05-07T10:50:13.448Z,3524.00
2023-05-07T10:51:13.386Z,3536.00
2023-05-07T10:52:13.409Z,3520.00
2023-05-07T10:53:13.376Z,3444.00
2023-05-07T10:54:13.342Z,3316.00
2023-05-07T10:55:13.397Z,3580.00
2023-05-07T10:56:13.334Z,3496.00
2023-05-07T10:57:13.352Z,2932.00
2023-05-07T10:58:20.062Z,2564.00
2023-05-07T10:59:15.308Z,2452.00
2023-05-07T11:00:13.370Z,2484.00
2023-05-07T11:01:13.300Z,2464.00
2023-05-07T11:02:13.362Z,2620.00
2023-05-07T11:03:13.372Z,2688.00
2023-05-07T11:04:13.282Z,2780.00
2023-05-07T11:05:13.592Z,2600.00
2023-05-07T11:06:13.267Z,2564.00
2023-05-07T11:07:13.286Z,2572.00
2023-05-07T11:08:13.237Z,2592.00
2023-05-07T11:09:13.236Z,2664.00
2023-05-07T11:10:13.253Z,2716.00
2023-05-07T11:11:13.235Z,2880.00
2023-05-07T11:12:13.228Z,3040.00
2023-05-07T11:13:13.290Z,3144.00
2023-05-07T11:14:13.203Z,2868.00
2023-05-07T11:15:13.466Z,2684.00
2023-05-07T11:16:13.261Z,2644.00
2023-05-07T11:17:13.169Z,2616.00
2023-05-07T11:18:13.183Z,2572.00
2023-05-07T11:19:13.207Z,2552.00
2023-05-07T11:20:13.142Z,2540.00
2023-05-07T11:21:13.216Z,2536.00
2023-05-07T11:22:13.131Z,2528.00
2023-05-07T11:23:13.125Z,2528.00
2023-05-07T11:24:13.117Z,2552.00
2023-05-07T11:25:13.269Z,2584.00
2023-05-07T11:26:13.116Z,2504.00
2023-05-07T11:27:13.086Z,2492.00
2023-05-07T11:28:13.081Z,2480.00
2023-05-07T11:29:13.068Z,2432.00
2023-05-07T11:30:13.089Z,2488.00
2023-05-07T11:31:13.103Z,2508.00
2023-05-07T11:32:13.196Z,2508.00
2023-05-07T11:33:13.065Z,2416.00
2023-05-07T11:34:13.034Z,2396.00
2023-05-07T11:35:13.365Z,2384.00
2023-05-07T11:36:13.033Z,2368.00
2023-05-07T11:37:13.009Z,2360.00
2023-05-07T11:38:13.006Z,2340.00
2023-05-07T11:39:13.003Z,2308.00
2023-05-07T11:40:44.928Z,2272.00
2023-05-07T11:41:12.989Z,2244.00
2023-05-07T11:42:12.967Z,2220.00
2023-05-07T11:43:12.960Z,2216.00
2023-05-07T11:44:12.953Z,2224.00
2023-05-07T11:45:13.177Z,2260.00
2023-05-07T11:46:12.983Z,2276.00
2023-05-07T11:47:12.929Z,2300.00
2023-05-07T11:48:13.027Z,2272.00
2023-05-07T11:49:12.941Z,2304.00
2023-05-07T11:51:00.437Z,2240.00
2023-05-07T11:51:13.499Z,2252.00
2023-05-07T11:52:12.903Z,2316.00
2023-05-07T11:53:13.989Z,2296.00
2023-05-07T11:54:13.959Z,2360.00
2023-05-07T11:55:13.105Z,2492.00
2023-05-07T11:56:12.863Z,2608.00
2023-05-07T11:57:12.871Z,2456.00
2023-05-07T11:58:12.915Z,2740.00
2023-05-07T11:59:12.864Z,2828.00
2023-05-07T12:00:12.820Z,2612.00
2023-05-07T12:01:12.829Z,2460.00
2023-05-07T12:02:12.876Z,2456.00
2023-05-07T12:03:13.438Z,2476.00
2023-05-07T12:04:12.946Z,2444.00
2023-05-07T12:05:13.070Z,2540.00
2023-05-07T12:06:12.862Z,2540.00
2023-05-07T12:07:12.788Z,2508.00
2023-05-07T12:08:12.854Z,2540.00
2023-05-07T12:09:12.758Z,2968.00
2023-05-07T12:10:12.752Z,2848.00
2023-05-07T12:11:12.749Z,3436.00
2023-05-07T12:12:12.761Z,3748.00
2023-05-07T12:13:12.807Z,3380.00
2023-05-07T12:14:12.780Z,3336.00
2023-05-07T12:15:12.990Z,2652.00
2023-05-07T12:16:12.714Z,2732.00
2023-05-07T12:17:12.792Z,2664.00
2023-05-07T12:18:12.768Z,2656.00
2023-05-07T12:19:15.048Z,3564.00
2023-05-07T12:20:13.281Z,3600.00
2023-05-07T12:21:12.658Z,3548.00
2023-05-07T12:22:12.677Z,3528.00
2023-05-07T12:23:12.673Z,3480.00
2023-05-07T12:24:12.758Z,3480.00
2023-05-07T12:25:12.848Z,3436.00
2023-05-07T12:26:12.626Z,3440.00
2023-05-07T12:27:12.646Z,3424.00
2023-05-07T12:28:12.654Z,3184.00
2023-05-07T12:29:12.616Z,3340.00
2023-05-07T12:30:12.647Z,3372.00
2023-05-07T12:31:12.657Z,3364.00
2023-05-07T12:32:12.654Z,3308.00
2023-05-07T12:33:12.576Z,3220.00
2023-05-07T12:34:12.571Z,2968.00
2023-05-07T12:35:12.733Z,2740.00
2023-05-07T12:36:12.574Z,2656.00